Terminal Aerodrome Forecast
Issued by NWS Bismarck, ND

Home | Current Version | Previous Version | Text Only | Print | Product List | Glossary Off
Versions: 1 2 3 4 5 6 7 8 9 10 11 12 13 14 15 16 17 18 19 20 21

000
FTUS43 KBIS 051609 AAE
TAFBIS
TAF AMD
KBIS 051609Z 0516/0612 03010KT P6SM SCT015 BKN120
      TEMPO 0516/0518 -SHRA BKN020 OVC120
     FM051800 01015KT P6SM BKN035 OVC070
     FM060200 36009KT P6SM BKN035 OVC070
     FM060900 33005KT P6SM SCT070=

USA.gov is the U.S. government's official web portal to all federal, state and local government web resources and services.